createdAt,value
2022-08-27T00:01:42.808Z,59.40
2022-08-27T00:04:10.090Z,59.13
2022-08-27T00:06:37.321Z,58.62
2022-08-27T00:09:05.748Z,58.38
2022-08-27T00:11:33.466Z,58.25
2022-08-27T00:14:01.422Z,58.33
2022-08-27T00:16:28.590Z,58.44
2022-08-27T00:18:57.464Z,59.15
2022-08-27T00:21:25.719Z,58.53
2022-08-27T00:23:53.433Z,58.87
2022-08-27T00:26:20.591Z,58.60
2022-08-27T00:28:47.964Z,58.73
2022-08-27T00:31:15.272Z,58.84
2022-08-27T00:33:43.561Z,59.00
2022-08-27T00:36:13.103Z,59.40
2022-08-27T00:38:41.544Z,58.73
2022-08-27T00:41:12.499Z,59.49
2022-08-27T00:43:45.319Z,59.63
2022-08-27T00:46:22.506Z,59.38
2022-08-27T00:48:53.524Z,58.46
2022-08-27T00:51:22.140Z,58.84
2022-08-27T00:53:50.395Z,59.12
2022-08-27T00:56:50.637Z,59.80
2022-08-27T00:59:23.211Z,59.75
2022-08-27T01:02:10.195Z,59.90
2022-08-27T01:04:40.250Z,59.82
2022-08-27T01:07:07.670Z,59.52
2022-08-27T01:09:35.060Z,59.71
2022-08-27T01:12:02.672Z,59.69
2022-08-27T01:14:29.881Z,60.16
2022-08-27T01:16:59.438Z,60.44
2022-08-27T01:19:39.800Z,60.16
2022-08-27T01:22:56.386Z,60.27
2022-08-27T01:25:25.413Z,60.43
2022-08-27T01:27:55.459Z,60.60
2022-08-27T01:30:23.630Z,60.65
2022-08-27T01:32:52.604Z,61.02
2022-08-27T01:35:21.278Z,60.96
2022-08-27T01:37:52.401Z,60.88
2022-08-27T01:40:20.840Z,60.07
2022-08-27T01:42:52.039Z,60.31
2022-08-27T01:45:24.638Z,59.61
2022-08-27T01:47:51.938Z,59.86
2022-08-27T01:50:25.187Z,59.99
2022-08-27T01:52:54.459Z,59.32
2022-08-27T01:55:25.658Z,59.39
2022-08-27T01:57:55.340Z,59.98
2022-08-27T02:00:31.089Z,59.85
2022-08-27T02:02:59.198Z,58.73
2022-08-27T02:05:28.487Z,58.72
2022-08-27T02:07:56.126Z,59.05
2022-08-27T02:10:29.926Z,59.52
2022-08-27T02:12:57.043Z,59.47
2022-08-27T02:15:25.358Z,59.97
2022-08-27T02:17:52.776Z,60.16
2022-08-27T02:20:21.327Z,60.05
2022-08-27T02:22:49.767Z,60.83
2022-08-27T02:25:20.116Z,61.14
2022-08-27T02:27:50.024Z,61.47
2022-08-27T02:30:23.974Z,61.70
2022-08-27T02:32:53.035Z,61.76
2022-08-27T02:35:23.799Z,61.12
2022-08-27T02:37:51.394Z,60.83
2022-08-27T02:40:21.856Z,60.29
2022-08-27T02:42:49.910Z,60.21
2022-08-27T02:45:18.259Z,60.61
2022-08-27T02:47:45.819Z,59.99
2022-08-27T02:50:14.320Z,60.79
2022-08-27T02:52:41.872Z,61.15
2022-08-27T02:55:09.596Z,61.05
2022-08-27T02:57:37.290Z,60.93
2022-08-27T03:00:18.345Z,60.90
2022-08-27T03:02:45.791Z,60.74
2022-08-27T03:05:14.491Z,60.50
2022-08-27T03:07:42.739Z,60.74
2022-08-27T03:10:13.815Z,60.88
2022-08-27T03:12:41.724Z,60.65
2022-08-27T03:15:15.241Z,60.83
2022-08-27T03:18:01.950Z,61.07
2022-08-27T03:20:29.837Z,61.69
2022-08-27T03:22:57.250Z,61.80
2022-08-27T03:25:24.786Z,61.70
2022-08-27T03:27:51.972Z,62.17
2022-08-27T03:30:22.454Z,61.93
2022-08-27T03:32:50.339Z,61.95
2022-08-27T03:35:19.629Z,61.64
2022-08-27T03:37:47.331Z,61.61
2022-08-27T03:40:16.581Z,62.13
2022-08-27T03:42:43.856Z,62.12
2022-08-27T03:45:12.363Z,62.18
2022-08-27T03:47:40.248Z,62.21
2022-08-27T03:50:11.117Z,62.85
2022-08-27T03:52:38.832Z,62.96
2022-08-27T03:55:08.636Z,62.72
2022-08-27T03:57:36.287Z,63.13
2022-08-27T04:00:08.434Z,62.64
2022-08-27T04:02:41.083Z,62.73
2022-08-27T04:05:12.419Z,62.26
2022-08-27T04:07:41.437Z,62.44
2022-08-27T04:10:11.251Z,62.21
2022-08-27T04:12:39.429Z,62.75
2022-08-27T04:15:08.840Z,62.24
2022-08-27T04:17:36.364Z,62.67
2022-08-27T04:20:33.596Z,63.04
2022-08-27T04:22:53.268Z,63.22
2022-08-27T04:25:20.715Z,63.49
2022-08-27T04:27:48.131Z,63.31
2022-08-27T04:30:15.886Z,63.56
2022-08-27T04:32:43.112Z,63.52
2022-08-27T04:35:11.745Z,63.57
2022-08-27T04:37:40.333Z,63.60
2022-08-27T04:40:10.609Z,63.80
2022-08-27T04:42:38.054Z,64.07
2022-08-27T04:45:06.036Z,64.45
2022-08-27T04:47:33.288Z,63.84
2022-08-27T04:50:00.480Z,63.76
2022-08-27T04:52:30.272Z,64.53
2022-08-27T04:54:57.556Z,64.74
2022-08-27T04:57:25.815Z,63.97
2022-08-27T04:59:53.061Z,64.20
2022-08-27T05:02:20.108Z,64.66
2022-08-27T05:04:47.459Z,64.38
2022-08-27T05:07:14.607Z,64.12
2022-08-27T05:09:42.053Z,63.55
2022-08-27T05:12:09.303Z,63.65
2022-08-27T05:14:36.591Z,63.31
2022-08-27T05:17:03.765Z,63.49
2022-08-27T05:19:31.471Z,64.05
2022-08-27T05:21:58.640Z,63.88
2022-08-27T05:24:25.781Z,64.34
2022-08-27T05:26:53.755Z,64.33
2022-08-27T05:29:22.208Z,64.34
2022-08-27T05:31:49.392Z,64.09
2022-08-27T05:34:24.692Z,63.77
2022-08-27T05:36:53.725Z,64.04
2022-08-27T05:39:21.279Z,65.37
2022-08-27T05:41:48.435Z,64.86
2022-08-27T05:44:40.518Z,64.11
2022-08-27T05:47:04.889Z,64.26
2022-08-27T05:49:32.095Z,64.06
2022-08-27T05:51:59.312Z,63.44
2022-08-27T05:54:26.747Z,63.48
2022-08-27T05:56:53.875Z,61.75
2022-08-27T05:59:39.882Z,61.52
2022-08-27T06:02:07.952Z,61.92
2022-08-27T06:04:35.034Z,61.57
2022-08-27T06:07:02.639Z,60.48
2022-08-27T06:09:30.212Z,60.23
2022-08-27T06:12:00.113Z,60.92
2022-08-27T06:14:27.714Z,60.34
2022-08-27T06:16:55.426Z,60.14
2022-08-27T06:19:23.219Z,60.67
2022-08-27T06:22:00.081Z,60.49
2022-08-27T06:24:29.492Z,60.00
2022-08-27T06:26:57.593Z,59.69
2022-08-27T06:29:25.154Z,59.63
2022-08-27T06:31:55.139Z,59.67
2022-08-27T06:34:22.426Z,58.91
2022-08-27T06:36:49.725Z,59.58
2022-08-27T06:39:17.198Z,59.32
2022-08-27T06:41:46.073Z,60.63
2022-08-27T06:44:14.475Z,61.72
2022-08-27T06:46:43.411Z,61.35
2022-08-27T06:49:11.947Z,62.33
2022-08-27T06:51:43.210Z,61.17
2022-08-27T06:54:12.269Z,60.68
2022-08-27T06:56:41.547Z,60.16
2022-08-27T06:59:12.368Z,60.37
2022-08-27T07:01:43.504Z,59.91
2022-08-27T07:04:16.582Z,60.11
2022-08-27T07:06:44.481Z,59.96
2022-08-27T07:09:12.185Z,59.86
2022-08-27T07:11:39.449Z,60.27
2022-08-27T07:14:08.261Z,60.84
2022-08-27T07:16:35.928Z,61.06
2022-08-27T07:19:05.633Z,61.07
2022-08-27T07:21:34.429Z,61.41
2022-08-27T07:24:05.510Z,61.94
2022-08-27T07:26:37.018Z,61.45
2022-08-27T07:29:06.815Z,61.00
2022-08-27T07:31:37.758Z,61.94
2022-08-27T07:34:06.693Z,61.59
2022-08-27T07:36:35.762Z,61.55
2022-08-27T07:39:03.815Z,62.40
2022-08-27T07:41:32.355Z,63.31
2022-08-27T07:44:26.163Z,63.67
2022-08-27T07:46:58.269Z,64.28
2022-08-27T07:49:28.507Z,63.65
2022-08-27T07:51:56.014Z,64.28
2022-08-27T07:54:24.088Z,63.55
2022-08-27T07:56:55.215Z,63.30
2022-08-27T07:59:25.076Z,62.09
2022-08-27T08:01:56.185Z,61.88
2022-08-27T08:04:24.375Z,62.64
2022-08-27T08:06:53.050Z,61.93
2022-08-27T08:09:22.291Z,61.86
2022-08-27T08:11:51.245Z,61.12
2022-08-27T08:14:19.254Z,60.81
2022-08-27T08:16:46.625Z,60.59
2022-08-27T08:19:13.836Z,60.70
2022-08-27T08:21:41.647Z,60.18
2022-08-27T08:24:09.135Z,60.95
2022-08-27T08:26:36.248Z,61.30
2022-08-27T08:29:05.221Z,61.12
2022-08-27T08:31:32.889Z,61.69
2022-08-27T08:33:59.952Z,61.21
2022-08-27T08:36:27.132Z,60.78
2022-08-27T08:38:54.581Z,61.33
2022-08-27T08:41:45.612Z,61.58
2022-08-27T08:44:38.650Z,60.90
2022-08-27T08:47:25.358Z,60.86
2022-08-27T08:50:15.741Z,61.28
2022-08-27T08:53:00.832Z,60.94
2022-08-27T08:55:54.595Z,60.25
2022-08-27T08:58:49.980Z,60.12
2022-08-27T09:01:20.986Z,59.74
2022-08-27T09:03:59.611Z,60.18
2022-08-27T09:06:43.368Z,59.27
2022-08-27T09:09:28.151Z,58.85
2022-08-27T09:12:05.371Z,59.02
2022-08-27T09:14:50.960Z,58.78
2022-08-27T09:17:18.435Z,58.75
2022-08-27T09:19:45.865Z,59.02
2022-08-27T09:22:32.076Z,58.95
2022-08-27T09:25:36.517Z,59.34
2022-08-27T09:28:30.931Z,58.94
2022-08-27T09:31:05.703Z,58.56
2022-08-27T09:33:54.821Z,59.63
2022-08-27T09:36:23.560Z,60.24
2022-08-27T09:39:03.960Z,60.43
2022-08-27T09:41:42.458Z,60.67
2022-08-27T09:44:17.796Z,59.60
2022-08-27T09:47:02.935Z,58.93
2022-08-27T09:49:31.480Z,59.87
2022-08-27T09:51:59.076Z,59.47
2022-08-27T09:54:41.963Z,58.75
2022-08-27T09:57:12.265Z,60.02
2022-08-27T09:59:53.416Z,59.61
2022-08-27T10:02:25.272Z,58.16
2022-08-27T10:04:58.798Z,58.37
2022-08-27T10:07:47.218Z,58.13
2022-08-27T10:10:23.280Z,58.04
2022-08-27T10:12:59.333Z,58.08
2022-08-27T10:15:49.548Z,58.04
2022-08-27T10:18:41.425Z,58.10
2022-08-27T10:21:45.949Z,58.65
2022-08-27T10:24:59.995Z,57.36
2022-08-27T10:28:06.908Z,59.00
2022-08-27T10:30:52.220Z,57.43
2022-08-27T10:34:10.870Z,56.69
2022-08-27T10:37:04.312Z,57.12
2022-08-27T10:39:52.906Z,56.87
2022-08-27T10:43:23.239Z,57.06
2022-08-27T10:46:08.394Z,57.39
2022-08-27T10:48:46.268Z,57.23
2022-08-27T10:52:11.228Z,57.79
2022-08-27T10:55:18.456Z,59.65
2022-08-27T10:58:16.630Z,59.96
2022-08-27T11:01:30.001Z,60.67
2022-08-27T11:04:10.984Z,59.63
2022-08-27T11:06:47.264Z,59.04
2022-08-27T11:09:56.181Z,59.24
2022-08-27T11:12:34.203Z,59.20
2022-08-27T11:15:41.596Z,58.90
2022-08-27T11:18:35.671Z,59.42
2022-08-27T11:21:45.216Z,59.22
2022-08-27T11:24:49.830Z,61.12
2022-08-27T11:27:24.882Z,62.26
2022-08-27T11:30:07.066Z,62.62
2022-08-27T11:32:55.810Z,62.33
2022-08-27T11:35:50.536Z,61.37
2022-08-27T11:38:45.881Z,59.84
2022-08-27T11:41:45.006Z,57.32
2022-08-27T11:44:19.648Z,55.73
2022-08-27T11:46:53.893Z,54.28
2022-08-27T11:49:29.958Z,52.54
2022-08-27T11:52:09.476Z,52.27
2022-08-27T11:55:11.120Z,52.79
2022-08-27T11:57:38.796Z,52.68
2022-08-27T12:00:26.627Z,53.20
2022-08-27T12:03:05.231Z,53.52
2022-08-27T12:05:42.870Z,54.62
2022-08-27T12:08:24.134Z,55.10
2022-08-27T12:11:24.349Z,58.01
2022-08-27T12:14:25.883Z,58.08
2022-08-27T12:17:01.802Z,59.24
2022-08-27T12:19:41.357Z,60.67
2022-08-27T12:23:00.615Z,60.79
2022-08-27T12:25:28.518Z,58.69
2022-08-27T12:28:03.117Z,56.40
2022-08-27T12:30:36.848Z,56.54
2022-08-27T12:33:35.540Z,55.33
2022-08-27T12:36:14.539Z,54.14
2022-08-27T12:38:58.093Z,53.32
2022-08-27T12:41:43.609Z,53.47
2022-08-27T12:44:33.631Z,53.14
2022-08-27T12:47:07.704Z,50.70
2022-08-27T12:49:58.827Z,50.05
2022-08-27T12:52:26.048Z,51.34
2022-08-27T12:55:28.025Z,51.91
2022-08-27T12:58:39.760Z,53.21
2022-08-27T13:01:28.544Z,53.70
2022-08-27T13:03:57.097Z,52.89
2022-08-27T13:06:35.214Z,53.43
2022-08-27T13:09:08.671Z,54.74
2022-08-27T13:11:47.822Z,55.58
2022-08-27T13:14:20.946Z,56.36
2022-08-27T13:16:59.535Z,55.89
2022-08-27T13:19:31.395Z,55.34
2022-08-27T13:22:01.539Z,55.86
2022-08-27T13:24:33.916Z,56.21
2022-08-27T13:27:04.988Z,56.82
2022-08-27T13:29:33.055Z,56.38
2022-08-27T13:32:00.971Z,55.75
2022-08-27T13:34:33.471Z,54.97
2022-08-27T13:37:27.446Z,55.59
2022-08-27T13:39:57.137Z,56.15
2022-08-27T13:42:26.483Z,55.50
2022-08-27T13:45:01.658Z,57.54
2022-08-27T13:47:30.694Z,55.57
2022-08-27T13:50:18.635Z,54.49
2022-08-27T13:53:04.588Z,54.24
2022-08-27T13:55:33.305Z,51.00
2022-08-27T13:58:16.233Z,48.64
2022-08-27T14:00:43.595Z,46.16
2022-08-27T14:03:34.702Z,45.11
2022-08-27T14:06:02.693Z,45.36
2022-08-27T14:08:36.108Z,41.95
2022-08-27T14:11:10.129Z,43.15
2022-08-27T14:13:47.788Z,47.36
2022-08-27T14:16:29.546Z,48.85
2022-08-27T14:19:12.167Z,50.57
2022-08-27T14:21:43.473Z,52.83
2022-08-27T14:24:10.916Z,54.30
2022-08-27T14:26:38.018Z,54.91
2022-08-27T14:29:11.847Z,55.48
2022-08-27T14:31:39.557Z,55.95
2022-08-27T14:34:08.388Z,57.99
2022-08-27T14:36:39.207Z,59.06
2022-08-27T14:39:07.292Z,59.02
2022-08-27T14:41:35.181Z,59.51
2022-08-27T14:44:02.577Z,60.30
2022-08-27T14:46:33.221Z,60.54
2022-08-27T14:49:01.919Z,60.41
2022-08-27T14:51:32.597Z,60.12
2022-08-27T14:53:59.809Z,60.63
2022-08-27T14:56:27.275Z,61.33
2022-08-27T14:58:54.715Z,62.23
2022-08-27T15:01:26.545Z,61.72
2022-08-27T15:03:54.909Z,61.24
2022-08-27T15:06:23.892Z,62.84
2022-08-27T15:08:51.660Z,62.74
2022-08-27T15:11:41.602Z,63.59
2022-08-27T15:14:22.031Z,64.04
2022-08-27T15:16:49.343Z,63.74
2022-08-27T15:19:17.206Z,63.16
2022-08-27T15:21:47.741Z,62.26
2022-08-27T15:24:25.529Z,61.90
2022-08-27T15:26:58.991Z,61.36
2022-08-27T15:29:27.661Z,60.69
2022-08-27T15:31:55.351Z,60.81
2022-08-27T15:34:22.482Z,59.36
2022-08-27T15:36:49.712Z,58.79
2022-08-27T15:39:16.857Z,58.64
2022-08-27T15:42:05.847Z,58.06
2022-08-27T15:44:31.813Z,57.54
2022-08-27T15:46:59.146Z,56.43
2022-08-27T15:49:26.380Z,55.27
2022-08-27T15:51:53.706Z,54.00
2022-08-27T15:54:21.420Z,54.08
2022-08-27T15:56:48.502Z,53.62
2022-08-27T15:59:15.689Z,53.05
2022-08-27T16:01:43.654Z,52.17
2022-08-27T16:04:11.009Z,52.02
2022-08-27T16:06:38.773Z,51.60
2022-08-27T16:09:06.424Z,52.22
2022-08-27T16:11:33.967Z,54.35
2022-08-27T16:14:01.478Z,54.35
2022-08-27T16:16:31.620Z,55.69
2022-08-27T16:19:04.832Z,55.14
2022-08-27T16:21:34.881Z,56.31
2022-08-27T16:24:03.965Z,56.34
2022-08-27T16:26:31.138Z,56.85
2022-08-27T16:28:58.367Z,56.11
2022-08-27T16:31:25.628Z,55.69
2022-08-27T16:33:52.838Z,56.24
2022-08-27T16:36:20.145Z,57.43
2022-08-27T16:38:47.427Z,58.18
2022-08-27T16:41:14.603Z,58.76
2022-08-27T16:43:41.929Z,59.55
2022-08-27T16:46:09.560Z,58.86
2022-08-27T16:48:58.205Z,58.93
2022-08-27T16:51:35.187Z,59.25
2022-08-27T16:54:05.178Z,60.51
2022-08-27T16:56:37.001Z,60.84
2022-08-27T16:59:05.454Z,60.58
2022-08-27T17:01:33.893Z,60.89
2022-08-27T17:04:15.439Z,60.21
2022-08-27T17:06:51.713Z,60.05
2022-08-27T17:09:19.549Z,60.31
2022-08-27T17:11:54.572Z,60.32
2022-08-27T17:14:21.878Z,60.74
2022-08-27T17:16:49.855Z,61.70
2022-08-27T17:19:18.711Z,62.13
2022-08-27T17:21:46.008Z,62.71
2022-08-27T17:24:13.455Z,63.20
2022-08-27T17:26:41.102Z,62.43
2022-08-27T17:29:08.175Z,62.67
2022-08-27T17:31:38.275Z,62.94
2022-08-27T17:34:07.401Z,63.60
2022-08-27T17:36:34.993Z,62.94
2022-08-27T17:39:03.048Z,62.78
2022-08-27T17:41:37.311Z,63.36
2022-08-27T17:44:19.600Z,63.85
2022-08-27T17:46:47.597Z,64.54
2022-08-27T17:49:15.176Z,64.24
2022-08-27T17:51:43.281Z,64.37
2022-08-27T17:54:54.271Z,63.90
2022-08-27T17:57:25.088Z,63.42
2022-08-27T17:59:53.966Z,63.08
2022-08-27T18:02:54.474Z,62.81
2022-08-27T18:05:24.260Z,63.33
2022-08-27T18:07:52.997Z,63.58
2022-08-27T18:10:25.420Z,63.92
2022-08-27T18:12:55.365Z,64.03
2022-08-27T18:15:27.171Z,64.56
2022-08-27T18:17:55.779Z,64.35
2022-08-27T18:20:26.606Z,64.51
2022-08-27T18:22:54.223Z,64.10
2022-08-27T18:25:25.459Z,63.63
2022-08-27T18:28:01.663Z,63.13
2022-08-27T18:30:29.266Z,63.10
2022-08-27T18:32:56.424Z,63.14
2022-08-27T18:35:31.334Z,62.82
2022-08-27T18:37:58.689Z,62.93
2022-08-27T18:40:30.948Z,63.19
2022-08-27T18:42:58.933Z,62.91
2022-08-27T18:45:28.640Z,63.50
2022-08-27T18:47:59.330Z,63.87
2022-08-27T18:50:27.445Z,63.51
2022-08-27T18:52:55.795Z,63.89
2022-08-27T18:55:27.544Z,63.90
2022-08-27T18:57:54.879Z,64.48
2022-08-27T19:00:22.353Z,64.25
2022-08-27T19:02:52.853Z,64.41
2022-08-27T19:05:26.604Z,63.22
2022-08-27T19:07:56.030Z,63.30
2022-08-27T19:10:24.341Z,63.55
2022-08-27T19:12:51.668Z,63.16
2022-08-27T19:15:19.825Z,63.71
2022-08-27T19:17:51.203Z,64.48
2022-08-27T19:20:19.883Z,63.38
2022-08-27T19:22:48.433Z,63.63
2022-08-27T19:25:17.401Z,63.66
2022-08-27T19:27:46.051Z,63.61
2022-08-27T19:30:15.902Z,63.20
2022-08-27T19:32:43.461Z,62.71
2022-08-27T19:35:10.998Z,63.10
2022-08-27T19:37:44.889Z,62.89
2022-08-27T19:40:17.221Z,62.71
2022-08-27T19:42:44.602Z,63.11
2022-08-27T19:45:12.044Z,63.75
2022-08-27T19:47:39.606Z,63.82
2022-08-27T19:50:08.119Z,63.51
2022-08-27T19:52:35.694Z,63.71
2022-08-27T19:55:13.554Z,63.35
2022-08-27T19:57:41.394Z,63.67
2022-08-27T20:00:11.414Z,63.76
2022-08-27T20:02:38.738Z,63.85
2022-08-27T20:05:22.998Z,63.77
2022-08-27T20:07:52.750Z,63.25
2022-08-27T20:10:25.788Z,64.21
2022-08-27T20:12:59.881Z,64.55
2022-08-27T20:15:27.352Z,65.64
2022-08-27T20:17:54.951Z,66.03
2022-08-27T20:20:24.759Z,65.14
2022-08-27T20:22:52.731Z,65.04
2022-08-27T20:25:20.379Z,65.95
2022-08-27T20:27:47.741Z,65.86
2022-08-27T20:30:17.511Z,65.73
2022-08-27T20:32:46.726Z,65.04
2022-08-27T20:35:15.376Z,64.63
2022-08-27T20:37:42.807Z,65.25
2022-08-27T20:40:25.335Z,65.24
2022-08-27T20:42:52.962Z,66.25
2022-08-27T20:45:20.888Z,67.92
2022-08-27T20:47:49.779Z,67.30
2022-08-27T20:50:21.689Z,68.43
2022-08-27T20:52:51.535Z,68.28
2022-08-27T20:55:20.107Z,68.56
2022-08-27T20:58:07.011Z,68.21
2022-08-27T21:00:36.742Z,69.64
2022-08-27T21:03:03.965Z,69.31
2022-08-27T21:05:34.713Z,68.06
2022-08-27T21:08:07.276Z,67.82
2022-08-27T21:10:34.730Z,68.00
2022-08-27T21:13:05.157Z,67.92
2022-08-27T21:15:33.059Z,67.97
2022-08-27T21:18:00.310Z,68.42
2022-08-27T21:20:27.528Z,67.67
2022-08-27T21:22:57.672Z,67.50
2022-08-27T21:25:26.056Z,66.72
2022-08-27T21:27:55.270Z,66.64
2022-08-27T21:30:24.571Z,68.63
2022-08-27T21:32:55.754Z,69.14
2022-08-27T21:35:28.273Z,69.96
2022-08-27T21:37:57.240Z,69.91
2022-08-27T21:40:25.677Z,68.90
2022-08-27T21:42:54.339Z,68.85
2022-08-27T21:45:21.789Z,69.89
2022-08-27T21:47:49.199Z,70.72
2022-08-27T21:50:16.279Z,70.57
2022-08-27T21:52:43.468Z,71.30
2022-08-27T21:55:11.309Z,71.35
2022-08-27T21:57:38.545Z,71.17
2022-08-27T22:00:32.416Z,71.12
2022-08-27T22:02:59.791Z,70.92
2022-08-27T22:05:27.230Z,70.70
2022-08-27T22:07:54.391Z,70.91
2022-08-27T22:10:21.715Z,70.14
2022-08-27T22:12:48.817Z,70.29
2022-08-27T22:15:16.122Z,70.47
2022-08-27T22:17:43.235Z,70.25
2022-08-27T22:20:11.658Z,70.13
2022-08-27T22:22:39.356Z,69.58
2022-08-27T22:25:08.619Z,69.14
2022-08-27T22:27:35.955Z,69.50
2022-08-27T22:30:07.393Z,69.47
2022-08-27T22:32:39.434Z,69.59
2022-08-27T22:35:07.307Z,69.38
2022-08-27T22:37:34.687Z,69.29
2022-08-27T22:40:02.242Z,68.50
2022-08-27T22:42:30.508Z,68.26
2022-08-27T22:44:57.589Z,68.36
2022-08-27T22:47:24.762Z,68.63
2022-08-27T22:49:52.860Z,68.76
2022-08-27T22:52:20.952Z,69.19
2022-08-27T22:54:54.971Z,68.76
2022-08-27T22:57:22.324Z,68.97
2022-08-27T22:59:49.438Z,69.10
2022-08-27T23:02:16.665Z,69.42
2022-08-27T23:04:54.905Z,68.91
2022-08-27T23:07:24.417Z,68.23
2022-08-27T23:09:51.671Z,68.45
2022-08-27T23:12:19.992Z,69.07
2022-08-27T23:14:47.172Z,68.98
2022-08-27T23:17:16.164Z,68.43
2022-08-27T23:19:43.824Z,68.77
2022-08-27T23:22:11.267Z,68.39
2022-08-27T23:25:00.958Z,68.71
2022-08-27T23:27:30.726Z,68.52
2022-08-27T23:30:00.534Z,68.61
2022-08-27T23:32:29.002Z,68.93
2022-08-27T23:34:56.897Z,68.63
2022-08-27T23:37:24.822Z,67.74
2022-08-27T23:39:51.981Z,66.92
2022-08-27T23:42:19.684Z,67.33
2022-08-27T23:44:48.488Z,68.57
2022-08-27T23:47:16.643Z,68.74
2022-08-27T23:49:44.355Z,68.57
2022-08-27T23:52:12.928Z,68.79
2022-08-27T23:54:40.912Z,69.04
2022-08-27T23:57:08.073Z,68.65
2022-08-27T23:59:35.650Z,67.63
